createdAt,value
2023-01-17T00:00:36.501Z,11.57
2023-01-17T00:01:39.509Z,11.24
2023-01-17T00:02:42.696Z,10.79
2023-01-17T00:04:04.219Z,10.73
2023-01-17T00:05:25.943Z,10.43
2023-01-17T00:06:47.272Z,11.77
2023-01-17T00:08:08.859Z,10.82
2023-01-17T00:09:31.400Z,11.58
2023-01-17T00:10:36.419Z,11.65
2023-01-17T00:11:39.661Z,12.34
2023-01-17T00:12:48.600Z,12.18
2023-01-17T00:13:51.799Z,11.47
2023-01-17T00:14:55.959Z,11.61
2023-01-17T00:15:59.156Z,13.40
2023-01-17T00:17:02.277Z,11.71
2023-01-17T00:18:05.428Z,12.03
2023-01-17T00:19:26.709Z,12.16
2023-01-17T00:20:49.895Z,11.61
2023-01-17T00:21:54.758Z,11.95
2023-01-17T00:23:16.216Z,11.53
2023-01-17T00:24:37.606Z,16.00
2023-01-17T00:25:59.146Z,13.34
2023-01-17T00:27:13.996Z,13.52
2023-01-17T00:28:17.250Z,13.19
2023-01-17T00:29:20.175Z,13.54
2023-01-17T00:30:23.214Z,14.14
2023-01-17T00:31:26.122Z,14.04
2023-01-17T00:32:29.002Z,13.39
2023-01-17T00:33:32.455Z,13.36
2023-01-17T00:34:35.363Z,13.14
2023-01-17T00:35:38.551Z,14.53
2023-01-17T00:36:41.569Z,13.33
2023-01-17T00:37:44.562Z,13.32
2023-01-17T00:38:47.484Z,13.14
2023-01-17T00:39:50.371Z,12.79
2023-01-17T00:40:53.380Z,13.11
2023-01-17T00:41:57.077Z,12.71
2023-01-17T00:43:18.765Z,12.78
2023-01-17T00:44:40.148Z,12.52
2023-01-17T00:46:02.424Z,12.74
2023-01-17T00:47:24.138Z,13.69
2023-01-17T00:48:45.488Z,13.48
2023-01-17T00:50:07.065Z,13.96
2023-01-17T00:51:28.736Z,14.24
2023-01-17T00:52:50.316Z,14.80
2023-01-17T00:54:11.958Z,14.52
2023-01-17T00:55:33.643Z,13.47
2023-01-17T00:56:55.476Z,17.03
2023-01-17T00:58:17.047Z,14.67
2023-01-17T00:59:38.716Z,13.40
2023-01-17T01:01:00.406Z,13.51
2023-01-17T01:02:21.822Z,14.01
2023-01-17T01:03:43.088Z,13.21
2023-01-17T01:05:04.710Z,12.18
2023-01-17T01:06:27.161Z,11.69
2023-01-17T01:07:48.694Z,12.25
2023-01-17T01:09:10.385Z,11.59
2023-01-17T01:10:31.965Z,11.77
2023-01-17T01:11:53.716Z,11.56
2023-01-17T01:13:15.382Z,10.93
2023-01-17T01:14:36.783Z,12.38
2023-01-17T01:15:58.081Z,10.87
2023-01-17T01:17:19.568Z,11.79
2023-01-17T01:18:41.119Z,10.58
2023-01-17T01:20:02.694Z,10.17
2023-01-17T01:21:24.201Z,9.33
2023-01-17T01:22:45.837Z,9.89
2023-01-17T01:24:07.482Z,9.41
2023-01-17T01:25:29.191Z,9.85
2023-01-17T01:26:50.558Z,9.44
2023-01-17T01:28:13.421Z,9.67
2023-01-17T01:29:35.079Z,10.00
2023-01-17T01:30:56.613Z,9.23
2023-01-17T01:32:17.865Z,9.61
2023-01-17T01:33:20.769Z,9.24
2023-01-17T01:34:23.966Z,8.73
2023-01-17T01:35:27.110Z,9.00
2023-01-17T01:36:30.372Z,8.94
2023-01-17T01:37:33.412Z,9.58
2023-01-17T01:38:36.781Z,9.25
2023-01-17T01:39:39.846Z,9.10
2023-01-17T01:40:46.085Z,10.71
2023-01-17T01:41:49.158Z,9.95
2023-01-17T01:42:55.086Z,9.87
2023-01-17T01:43:58.294Z,9.82
2023-01-17T01:45:03.059Z,10.22
2023-01-17T01:46:08.426Z,10.71
2023-01-17T01:47:17.310Z,9.67
2023-01-17T01:48:30.112Z,9.93
2023-01-17T01:49:33.207Z,9.14
2023-01-17T01:50:36.998Z,8.74
2023-01-17T01:51:43.310Z,10.17
2023-01-17T01:52:49.710Z,9.67
2023-01-17T01:53:55.889Z,10.44
2023-01-17T01:55:02.476Z,9.94
2023-01-17T01:56:09.335Z,9.50
2023-01-17T01:57:15.969Z,10.30
2023-01-17T01:58:25.398Z,9.56
2023-01-17T01:59:30.262Z,9.89
2023-01-17T02:00:36.013Z,9.33
2023-01-17T02:01:39.325Z,9.88
2023-01-17T02:02:43.970Z,8.76
2023-01-17T02:03:48.803Z,9.78
2023-01-17T02:04:52.164Z,9.91
2023-01-17T02:05:56.053Z,9.68
2023-01-17T02:07:07.620Z,9.79
2023-01-17T02:08:14.768Z,9.56
2023-01-17T02:09:19.745Z,9.72
2023-01-17T02:10:23.535Z,10.05
2023-01-17T02:11:27.197Z,9.98
2023-01-17T02:12:30.790Z,9.55
2023-01-17T02:13:33.847Z,10.06
2023-01-17T02:14:36.895Z,9.89
2023-01-17T02:16:04.872Z,9.15
2023-01-17T02:17:26.518Z,9.72
2023-01-17T02:18:53.101Z,10.06
2023-01-17T02:20:21.014Z,9.14
2023-01-17T02:21:36.564Z,9.52
2023-01-17T02:23:07.597Z,9.76
2023-01-17T02:25:43.621Z,9.25
2023-01-17T02:27:03.268Z,10.63
2023-01-17T02:28:29.866Z,10.19
2023-01-17T02:30:09.770Z,10.48
2023-01-17T02:31:19.169Z,10.23
2023-01-17T02:32:34.494Z,10.39
2023-01-17T02:33:46.857Z,11.01
2023-01-17T02:35:08.427Z,10.70
2023-01-17T02:36:24.243Z,10.43
2023-01-17T02:37:56.814Z,10.17
2023-01-17T02:39:03.559Z,9.72
2023-01-17T02:40:10.915Z,9.94
2023-01-17T02:41:17.541Z,10.85
2023-01-17T02:42:25.684Z,10.77
2023-01-17T02:43:29.085Z,10.93
2023-01-17T02:44:35.782Z,11.31
2023-01-17T02:45:38.860Z,10.32
2023-01-17T02:46:51.292Z,10.86
2023-01-17T02:47:54.451Z,10.82
2023-01-17T02:48:58.210Z,11.76
2023-01-17T02:50:10.857Z,11.28
2023-01-17T02:51:32.585Z,12.37
2023-01-17T02:52:57.432Z,11.56
2023-01-17T02:54:10.141Z,11.62
2023-01-17T02:55:19.516Z,13.26
2023-01-17T02:56:42.556Z,11.62
2023-01-17T02:58:06.786Z,12.96
2023-01-17T02:59:16.176Z,13.08
2023-01-17T03:00:34.953Z,12.84
2023-01-17T03:01:53.668Z,12.29
2023-01-17T03:03:09.484Z,12.10
2023-01-17T03:04:21.937Z,12.96
2023-01-17T03:05:55.731Z,11.91
2023-01-17T03:07:02.458Z,12.62
2023-01-17T03:08:07.067Z,12.22
2023-01-17T03:09:10.366Z,13.61
2023-01-17T03:10:17.419Z,13.00
2023-01-17T03:11:20.806Z,11.73
2023-01-17T03:12:29.485Z,12.58
2023-01-17T03:13:32.644Z,11.96
2023-01-17T03:14:35.703Z,13.32
2023-01-17T03:15:39.969Z,12.90
2023-01-17T03:16:43.951Z,13.81
2023-01-17T03:17:50.211Z,12.66
2023-01-17T03:18:56.435Z,13.11
2023-01-17T03:19:59.584Z,13.00
2023-01-17T03:21:02.860Z,12.72
2023-01-17T03:22:05.926Z,12.98
2023-01-17T03:23:09.181Z,13.03
2023-01-17T03:24:12.414Z,12.29
2023-01-17T03:25:16.812Z,11.83
2023-01-17T03:26:19.985Z,13.06
2023-01-17T03:27:23.056Z,12.86
2023-01-17T03:28:26.198Z,13.00
2023-01-17T03:29:29.276Z,13.87
2023-01-17T03:30:32.480Z,13.69
2023-01-17T03:31:35.513Z,11.56
2023-01-17T03:32:38.557Z,13.13
2023-01-17T03:33:41.799Z,13.59
2023-01-17T03:34:44.985Z,14.33
2023-01-17T03:35:48.059Z,15.74
2023-01-17T03:36:51.229Z,15.19
2023-01-17T03:37:54.385Z,16.59
2023-01-17T03:38:57.445Z,16.01
2023-01-17T03:40:00.520Z,14.83
2023-01-17T03:41:04.210Z,15.61
2023-01-17T03:42:07.379Z,16.14
2023-01-17T03:43:11.256Z,16.33
2023-01-17T03:44:14.428Z,18.57
2023-01-17T03:45:17.714Z,17.93
2023-01-17T03:46:23.395Z,17.04
2023-01-17T03:47:26.565Z,16.66
2023-01-17T03:48:29.806Z,17.04
2023-01-17T03:49:32.892Z,16.26
2023-01-17T03:50:36.323Z,16.49
2023-01-17T03:51:39.496Z,13.58
2023-01-17T03:52:42.636Z,14.29
2023-01-17T03:53:49.389Z,13.74
2023-01-17T03:54:52.645Z,13.48
2023-01-17T03:55:55.718Z,12.17
2023-01-17T03:56:58.807Z,12.78
2023-01-17T03:58:01.872Z,13.04
2023-01-17T03:59:04.997Z,13.01
2023-01-17T04:00:09.294Z,13.74
2023-01-17T04:01:12.541Z,13.35
2023-01-17T04:02:15.715Z,14.01
2023-01-17T04:03:19.053Z,14.31
2023-01-17T04:04:22.567Z,13.74
2023-01-17T04:05:25.765Z,15.11
2023-01-17T04:06:29.053Z,13.27
2023-01-17T04:07:32.147Z,14.72
2023-01-17T04:08:35.309Z,16.64
2023-01-17T04:09:38.458Z,14.42
2023-01-17T04:10:41.597Z,14.67
2023-01-17T04:11:44.632Z,14.37
2023-01-17T04:12:47.971Z,14.91
2023-01-17T04:13:51.117Z,15.64
2023-01-17T04:14:54.058Z,14.31
2023-01-17T04:15:57.193Z,15.34
2023-01-17T04:17:00.840Z,15.28
2023-01-17T04:18:04.893Z,15.58
2023-01-17T04:19:11.542Z,15.98
2023-01-17T04:20:20.960Z,14.67
2023-01-17T04:21:24.240Z,14.19
2023-01-17T04:22:27.382Z,18.09
2023-01-17T04:23:30.575Z,16.47
2023-01-17T04:24:33.532Z,19.62
2023-01-17T04:25:36.784Z,15.43
2023-01-17T04:26:39.854Z,17.42
2023-01-17T04:27:42.990Z,15.38
2023-01-17T04:28:46.184Z,19.01
2023-01-17T04:29:49.322Z,16.89
2023-01-17T04:30:52.335Z,17.66
2023-01-17T04:31:55.491Z,16.26
2023-01-17T04:32:58.518Z,16.17
2023-01-17T04:34:01.588Z,18.67
2023-01-17T04:35:06.576Z,19.62
2023-01-17T04:36:10.900Z,16.55
2023-01-17T04:37:14.057Z,20.84
2023-01-17T04:38:17.215Z,19.57
2023-01-17T04:39:20.322Z,17.11
2023-01-17T04:40:23.522Z,21.27
2023-01-17T04:41:26.765Z,17.42
2023-01-17T04:42:30.065Z,17.59
2023-01-17T04:43:33.222Z,23.14
2023-01-17T04:44:36.391Z,18.99
2023-01-17T04:45:39.749Z,19.61
2023-01-17T04:46:43.129Z,21.29
2023-01-17T04:47:46.271Z,21.30
2023-01-17T04:48:49.431Z,18.28
2023-01-17T04:49:53.188Z,22.07
2023-01-17T04:51:00.640Z,24.68
2023-01-17T04:52:03.914Z,21.37
2023-01-17T04:53:07.415Z,19.88
2023-01-17T04:54:10.766Z,29.04
2023-01-17T04:55:15.174Z,22.50
2023-01-17T04:56:19.351Z,25.87
2023-01-17T04:57:22.692Z,23.84
2023-01-17T04:58:26.184Z,29.01
2023-01-17T04:59:29.650Z,26.41
2023-01-17T05:00:33.326Z,27.07
2023-01-17T05:01:36.651Z,26.72
2023-01-17T05:02:39.984Z,26.04
2023-01-17T05:03:43.073Z,26.14
2023-01-17T05:04:46.248Z,24.18
2023-01-17T05:05:49.410Z,22.99
2023-01-17T05:06:52.786Z,29.79
2023-01-17T05:07:57.010Z,28.39
2023-01-17T05:09:02.016Z,28.54
2023-01-17T05:10:06.141Z,25.62
2023-01-17T05:11:09.336Z,25.98
2023-01-17T05:12:12.557Z,26.81
2023-01-17T05:13:15.876Z,23.06
2023-01-17T05:14:19.062Z,24.74
2023-01-17T05:15:22.765Z,30.46
2023-01-17T05:16:26.316Z,29.64
2023-01-17T05:17:29.468Z,29.64
2023-01-17T05:18:32.662Z,32.40
2023-01-17T05:19:35.837Z,26.60
2023-01-17T05:20:39.006Z,30.57
2023-01-17T05:21:42.060Z,27.74
2023-01-17T05:22:46.787Z,29.92
2023-01-17T05:23:50.265Z,28.87
2023-01-17T05:24:53.433Z,26.62
2023-01-17T05:25:56.575Z,24.89
2023-01-17T05:27:01.639Z,25.20
2023-01-17T05:28:05.149Z,26.24
2023-01-17T05:29:08.760Z,33.32
2023-01-17T05:30:13.461Z,34.27
2023-01-17T05:31:16.660Z,30.01
2023-01-17T05:32:19.689Z,26.92
2023-01-17T05:33:22.751Z,28.51
2023-01-17T05:34:25.949Z,24.64
2023-01-17T05:35:32.093Z,27.64
2023-01-17T05:36:35.061Z,29.22
2023-01-17T05:37:38.104Z,23.73
2023-01-17T05:38:41.171Z,27.99
2023-01-17T05:39:44.371Z,27.56
2023-01-17T05:40:47.414Z,24.96
2023-01-17T05:41:50.472Z,23.95
2023-01-17T05:42:56.060Z,25.92
2023-01-17T05:43:59.252Z,29.39
2023-01-17T05:45:02.434Z,29.13
2023-01-17T05:46:05.679Z,28.37
2023-01-17T05:47:08.782Z,26.56
2023-01-17T05:48:11.847Z,24.85
2023-01-17T05:49:15.027Z,31.30
2023-01-17T05:50:23.434Z,27.30
2023-01-17T05:51:26.423Z,28.49
2023-01-17T05:52:29.567Z,22.69
2023-01-17T05:53:32.685Z,25.49
2023-01-17T05:54:35.801Z,23.31
2023-01-17T05:55:40.068Z,23.24
2023-01-17T05:56:43.348Z,22.93
2023-01-17T05:57:46.600Z,26.06
2023-01-17T05:58:49.652Z,26.04
2023-01-17T05:59:52.722Z,22.29
2023-01-17T06:00:56.153Z,22.12
2023-01-17T06:01:59.181Z,27.33
2023-01-17T06:03:02.239Z,21.81
2023-01-17T06:04:05.428Z,22.04
2023-01-17T06:05:09.145Z,23.98
2023-01-17T06:06:13.587Z,20.12
2023-01-17T06:07:17.029Z,26.16
2023-01-17T06:08:20.122Z,28.72
2023-01-17T06:09:23.546Z,20.74
2023-01-17T06:10:27.951Z,24.81
2023-01-17T06:11:31.327Z,21.55
2023-01-17T06:12:34.659Z,20.36
2023-01-17T06:13:37.993Z,22.81
2023-01-17T06:14:41.392Z,28.60
2023-01-17T06:15:44.861Z,26.11
2023-01-17T06:16:48.081Z,24.89
2023-01-17T06:17:51.162Z,25.65
2023-01-17T06:18:54.319Z,26.68
2023-01-17T06:19:57.539Z,26.91
2023-01-17T06:21:00.598Z,29.98
2023-01-17T06:22:04.728Z,23.98
2023-01-17T06:23:11.031Z,23.34
2023-01-17T06:24:14.656Z,22.29
2023-01-17T06:25:17.826Z,21.10
2023-01-17T06:26:20.986Z,21.50
2023-01-17T06:27:24.046Z,21.48
2023-01-17T06:28:27.253Z,19.94
2023-01-17T06:29:30.439Z,19.76
2023-01-17T06:30:34.355Z,20.19
2023-01-17T06:31:37.567Z,19.71
2023-01-17T06:32:40.602Z,20.83
2023-01-17T06:33:43.768Z,20.09
2023-01-17T06:34:46.898Z,20.32
2023-01-17T06:35:51.486Z,19.24
2023-01-17T06:36:54.663Z,19.81
2023-01-17T06:37:59.755Z,21.44
2023-01-17T06:39:03.006Z,19.84
2023-01-17T06:40:07.258Z,20.02
2023-01-17T06:41:10.336Z,18.79
2023-01-17T06:42:13.610Z,16.56
2023-01-17T06:43:16.811Z,17.23
2023-01-17T06:44:19.990Z,16.77
2023-01-17T06:45:23.161Z,17.20
2023-01-17T06:46:26.350Z,16.69
2023-01-17T06:47:29.479Z,15.79
2023-01-17T06:48:32.739Z,14.86
2023-01-17T06:49:35.806Z,14.64
2023-01-17T06:50:38.934Z,14.74
2023-01-17T06:51:43.631Z,13.88
2023-01-17T06:52:56.435Z,14.51
2023-01-17T06:53:59.537Z,13.61
2023-01-17T06:55:02.627Z,13.56
2023-01-17T06:56:06.361Z,13.54
2023-01-17T06:57:09.523Z,13.88
2023-01-17T06:58:12.564Z,15.14
2023-01-17T06:59:15.776Z,13.22
2023-01-17T07:00:19.209Z,13.85
2023-01-17T07:01:22.525Z,12.28
2023-01-17T07:02:25.795Z,14.02
2023-01-17T07:03:29.122Z,12.28
2023-01-17T07:04:34.126Z,13.72
2023-01-17T07:05:37.340Z,13.14
2023-01-17T07:06:40.642Z,14.07
2023-01-17T07:07:45.031Z,14.40
2023-01-17T07:08:48.411Z,14.74
2023-01-17T07:09:51.497Z,16.76
2023-01-17T07:10:58.358Z,14.07
2023-01-17T07:12:01.978Z,13.86
2023-01-17T07:13:05.136Z,13.54
2023-01-17T07:14:11.759Z,14.53
2023-01-17T07:15:15.001Z,12.95
2023-01-17T07:16:18.056Z,13.43
2023-01-17T07:17:21.199Z,12.86
2023-01-17T07:18:24.376Z,13.54
2023-01-17T07:19:27.529Z,13.81
2023-01-17T07:20:30.810Z,13.45
2023-01-17T07:21:33.860Z,13.16
2023-01-17T07:22:37.101Z,13.06
2023-01-17T07:23:40.256Z,12.57
2023-01-17T07:24:43.415Z,13.36
2023-01-17T07:25:54.740Z,14.37
2023-01-17T07:26:58.005Z,13.33
2023-01-17T07:28:01.190Z,13.68
2023-01-17T07:29:04.770Z,14.06
2023-01-17T07:30:09.238Z,12.95
2023-01-17T07:31:12.409Z,13.78
2023-01-17T07:32:15.527Z,12.18
2023-01-17T07:33:18.803Z,13.47
2023-01-17T07:34:22.094Z,13.77
2023-01-17T07:35:28.141Z,14.96
2023-01-17T07:36:31.424Z,14.02
2023-01-17T07:37:34.608Z,14.35
2023-01-17T07:38:37.829Z,14.94
2023-01-17T07:39:40.995Z,13.98
2023-01-17T07:40:44.878Z,15.19
2023-01-17T07:41:48.046Z,13.72
2023-01-17T07:42:51.128Z,14.14
2023-01-17T07:43:56.320Z,13.69
2023-01-17T07:45:00.113Z,15.63
2023-01-17T07:46:06.464Z,15.05
2023-01-17T07:47:09.890Z,16.29
2023-01-17T07:48:13.169Z,15.70
2023-01-17T07:49:16.251Z,15.76
2023-01-17T07:50:19.448Z,17.04
2023-01-17T07:51:22.636Z,18.00
2023-01-17T07:52:25.832Z,17.94
2023-01-17T07:53:30.998Z,16.11
2023-01-17T07:54:34.220Z,17.61
2023-01-17T07:55:37.391Z,19.66
2023-01-17T07:56:42.577Z,16.23
2023-01-17T07:57:50.497Z,19.31
2023-01-17T07:58:53.699Z,16.54
2023-01-17T07:59:57.050Z,16.92
2023-01-17T08:01:08.749Z,20.14
2023-01-17T08:02:21.120Z,16.22
2023-01-17T08:03:24.363Z,16.56
2023-01-17T08:04:28.241Z,16.77
2023-01-17T08:05:31.458Z,18.24
2023-01-17T08:06:34.670Z,21.35
2023-01-17T08:07:38.074Z,16.81
2023-01-17T08:08:41.202Z,18.84
2023-01-17T08:09:46.349Z,20.35
2023-01-17T08:10:51.018Z,19.49
2023-01-17T08:11:54.289Z,18.93
2023-01-17T08:12:57.588Z,17.88
2023-01-17T08:14:00.759Z,18.93
2023-01-17T08:15:04.895Z,16.84
2023-01-17T08:16:10.610Z,21.62
2023-01-17T08:17:15.778Z,14.18
2023-01-17T08:18:18.995Z,16.59
2023-01-17T08:19:22.232Z,16.48
2023-01-17T08:20:27.978Z,16.35
2023-01-17T08:21:31.206Z,16.57
2023-01-17T08:22:34.385Z,19.20
2023-01-17T08:23:37.400Z,18.34
2023-01-17T08:24:41.437Z,16.42
2023-01-17T08:25:44.623Z,16.47
2023-01-17T08:26:47.720Z,18.46
2023-01-17T08:27:51.758Z,16.27
2023-01-17T08:28:56.331Z,16.05
2023-01-17T08:29:59.552Z,18.02
2023-01-17T08:31:09.153Z,16.43
2023-01-17T08:32:13.389Z,15.32
2023-01-17T08:33:16.594Z,20.66
2023-01-17T08:34:19.710Z,16.29
2023-01-17T08:35:22.918Z,15.72
2023-01-17T08:36:28.040Z,15.78
2023-01-17T08:37:31.065Z,15.98
2023-01-17T08:38:34.343Z,21.62
2023-01-17T08:39:37.583Z,14.57
2023-01-17T08:40:40.606Z,15.23
2023-01-17T08:41:43.805Z,15.63
2023-01-17T08:42:57.853Z,17.87
2023-01-17T08:44:01.475Z,17.64
2023-01-17T08:45:07.902Z,19.94
2023-01-17T08:46:11.551Z,14.94
2023-01-17T08:47:14.836Z,22.00
2023-01-17T08:48:18.034Z,20.45
2023-01-17T08:49:21.189Z,15.31
2023-01-17T08:50:25.512Z,14.89
2023-01-17T08:51:29.475Z,16.82
2023-01-17T08:52:32.848Z,14.11
2023-01-17T08:53:36.048Z,17.75
2023-01-17T08:54:39.231Z,13.81
2023-01-17T08:55:42.471Z,16.26
2023-01-17T08:56:47.438Z,24.35
2023-01-17T08:57:51.183Z,16.25
2023-01-17T08:58:54.369Z,14.84
2023-01-17T08:59:58.509Z,21.61
2023-01-17T09:01:02.913Z,15.29
2023-01-17T09:02:11.481Z,16.85
2023-01-17T09:03:14.720Z,19.18
2023-01-17T09:04:18.040Z,16.24
2023-01-17T09:05:21.066Z,15.31
2023-01-17T09:06:24.345Z,17.91
2023-01-17T09:07:27.911Z,16.31
2023-01-17T09:08:31.279Z,17.01
2023-01-17T09:09:34.393Z,18.10
2023-01-17T09:10:37.547Z,15.73
2023-01-17T09:11:40.751Z,22.21
2023-01-17T09:12:43.944Z,15.24
2023-01-17T09:13:47.129Z,20.00
2023-01-17T09:14:50.306Z,16.91
2023-01-17T09:15:58.848Z,18.66
2023-01-17T09:17:02.065Z,17.14
2023-01-17T09:18:05.255Z,17.31
2023-01-17T09:19:09.738Z,17.52
2023-01-17T09:20:13.215Z,14.64
2023-01-17T09:21:17.445Z,15.10
2023-01-17T09:22:20.589Z,14.68
2023-01-17T09:23:24.587Z,16.77
2023-01-17T09:24:27.674Z,17.08
2023-01-17T09:25:30.853Z,19.17
2023-01-17T09:26:35.076Z,15.96
2023-01-17T09:27:38.259Z,19.48
2023-01-17T09:28:42.147Z,15.99
2023-01-17T09:29:45.347Z,15.73
2023-01-17T09:30:48.705Z,18.79
2023-01-17T09:31:51.750Z,19.44
2023-01-17T09:32:55.157Z,16.54
2023-01-17T09:33:58.346Z,17.84
2023-01-17T09:35:02.650Z,17.54
2023-01-17T09:36:06.583Z,15.56
2023-01-17T09:37:09.687Z,15.09
2023-01-17T09:38:13.936Z,20.14
2023-01-17T09:39:17.156Z,17.98
2023-01-17T09:40:23.887Z,17.97
2023-01-17T09:41:36.705Z,21.64
2023-01-17T09:42:40.681Z,15.29
2023-01-17T09:44:03.913Z,14.63
2023-01-17T09:45:13.484Z,18.76
2023-01-17T09:46:23.760Z,17.83
2023-01-17T09:47:36.618Z,15.22
2023-01-17T09:48:40.361Z,15.22
2023-01-17T09:49:45.779Z,15.03
2023-01-17T09:51:01.426Z,18.77
2023-01-17T09:52:06.606Z,16.49
2023-01-17T09:53:16.317Z,19.39
2023-01-17T09:54:24.811Z,16.04
2023-01-17T09:55:36.845Z,16.67
2023-01-17T09:56:46.593Z,15.18
2023-01-17T09:58:02.302Z,14.72
2023-01-17T09:59:33.166Z,17.54
2023-01-17T10:00:36.617Z,13.83
2023-01-17T10:02:01.301Z,14.94
2023-01-17T10:03:32.262Z,20.27
2023-01-17T10:04:39.066Z,15.22
2023-01-17T10:06:20.520Z,14.98
2023-01-17T10:07:46.700Z,16.33
2023-01-17T10:10:21.022Z,15.82
2023-01-17T10:11:39.635Z,14.28
2023-01-17T10:12:51.988Z,16.31
2023-01-17T10:14:10.494Z,16.61
2023-01-17T10:15:35.484Z,16.54
2023-01-17T10:18:33.978Z,16.16
2023-01-17T10:21:14.191Z,15.58
2023-01-17T10:22:37.193Z,14.70
2023-01-17T10:24:03.158Z,14.61
2023-01-17T10:25:15.898Z,16.08
2023-01-17T10:26:24.972Z,18.67
2023-01-17T10:27:40.733Z,15.76
2023-01-17T10:28:50.581Z,15.22
2023-01-17T10:29:53.649Z,15.22
2023-01-17T10:31:03.449Z,18.28
2023-01-17T10:32:10.253Z,15.30
2023-01-17T10:33:19.684Z,15.94
2023-01-17T10:34:38.464Z,16.19
2023-01-17T10:35:45.106Z,18.00
2023-01-17T10:36:59.665Z,16.81
2023-01-17T10:38:06.372Z,15.99
2023-01-17T10:39:21.916Z,14.73
2023-01-17T13:56:32.685Z,23.55
2023-01-17T13:57:43.126Z,18.97
2023-01-17T13:58:51.030Z,16.97
2023-01-17T13:59:56.039Z,19.05
2023-01-17T14:00:59.559Z,19.13
2023-01-17T14:02:02.850Z,18.42
2023-01-17T14:03:09.637Z,17.68
2023-01-17T14:04:13.088Z,19.54
2023-01-17T14:05:22.315Z,18.12
2023-01-17T14:06:31.146Z,16.92
2023-01-17T14:07:37.418Z,17.82
2023-01-17T14:08:44.127Z,16.94
2023-01-17T14:09:49.860Z,17.64
2023-01-17T14:10:56.115Z,18.16
2023-01-17T14:12:14.656Z,19.69
2023-01-17T14:13:35.954Z,21.05
2023-01-17T14:15:55.959Z,21.69
2023-01-17T14:17:17.371Z,19.56
2023-01-17T14:18:38.720Z,17.93
2023-01-17T14:19:50.133Z,19.41
2023-01-17T14:20:56.894Z,19.83
2023-01-17T14:22:21.900Z,23.64
2023-01-17T14:23:28.659Z,18.72
2023-01-17T14:24:32.150Z,20.28
2023-01-17T14:25:40.369Z,20.76
2023-01-17T14:26:56.045Z,19.07
2023-01-17T14:28:02.746Z,21.50
2023-01-17T14:29:38.343Z,21.32
2023-01-17T14:30:42.022Z,23.06
2023-01-17T14:31:46.058Z,18.84
2023-01-17T14:33:02.429Z,19.14
2023-01-17T14:34:13.168Z,18.83
2023-01-17T14:36:32.446Z,19.32
2023-01-17T14:39:50.746Z,18.33
2023-01-17T14:41:04.167Z,20.89
2023-01-17T14:42:10.901Z,20.26
2023-01-17T14:43:17.284Z,24.63
2023-01-17T14:44:21.300Z,21.71
2023-01-17T14:45:28.235Z,21.44
2023-01-17T14:46:32.104Z,22.22
2023-01-17T14:47:40.680Z,22.98
2023-01-17T14:48:43.869Z,21.02
2023-01-17T14:49:46.948Z,26.87
2023-01-17T14:51:01.182Z,19.70
2023-01-17T14:52:05.770Z,22.41
2023-01-17T14:53:15.672Z,24.11
2023-01-17T14:54:21.493Z,24.11
2023-01-17T14:55:26.533Z,23.43
2023-01-17T14:56:30.844Z,21.86
2023-01-17T14:57:34.031Z,26.16
2023-01-17T14:58:38.698Z,25.00
2023-01-17T14:59:41.896Z,23.66
2023-01-17T15:00:45.333Z,22.66
2023-01-17T15:02:07.221Z,23.99
2023-01-17T15:03:03.737Z,27.62
2023-01-17T15:04:06.937Z,29.37
2023-01-17T15:05:15.245Z,25.80
2023-01-17T15:06:24.472Z,22.78
2023-01-17T15:07:28.257Z,24.28
2023-01-17T15:08:34.827Z,24.26
2023-01-17T15:09:38.317Z,25.28
2023-01-17T15:10:48.058Z,23.01
2023-01-17T15:11:52.798Z,23.82
2023-01-17T15:12:59.502Z,22.94
2023-01-17T15:14:05.405Z,20.85
2023-01-17T15:15:29.728Z,25.89
2023-01-17T15:16:35.932Z,24.79
2023-01-17T15:17:39.130Z,21.31
2023-01-17T15:18:42.819Z,24.67
2023-01-17T15:19:49.171Z,21.70
2023-01-17T15:21:03.325Z,21.47
2023-01-17T15:22:06.705Z,21.23
2023-01-17T15:23:13.315Z,23.89
2023-01-17T15:24:22.660Z,24.59
2023-01-17T15:25:26.639Z,23.23
2023-01-17T15:26:33.636Z,25.38
2023-01-17T15:27:37.746Z,23.73
2023-01-17T15:28:41.843Z,23.12
2023-01-17T15:29:46.197Z,26.02
2023-01-17T15:31:01.897Z,25.86
2023-01-17T15:32:06.773Z,29.07
2023-01-17T15:33:13.487Z,24.96
2023-01-17T15:34:38.078Z,22.64
2023-01-17T15:35:41.164Z,22.36
2023-01-17T15:36:47.772Z,22.16
2023-01-17T15:37:55.382Z,23.17
2023-01-17T15:39:01.667Z,21.20
2023-01-17T15:40:17.397Z,21.48
2023-01-17T15:41:22.487Z,21.96
2023-01-17T15:42:30.715Z,20.76
2023-01-17T15:43:35.300Z,22.20
2023-01-17T15:44:49.546Z,20.44
2023-01-17T15:45:58.072Z,21.93
2023-01-17T15:47:01.288Z,20.72
2023-01-17T15:48:33.753Z,19.67
2023-01-17T15:49:36.741Z,20.12
2023-01-17T15:50:42.650Z,23.53
2023-01-17T15:51:54.887Z,20.69
2023-01-17T15:53:01.358Z,23.51
2023-01-17T15:54:24.773Z,22.32
2023-01-17T15:55:33.802Z,27.07
2023-01-17T15:56:37.338Z,22.96
2023-01-17T15:57:43.475Z,22.07
2023-01-17T15:58:48.500Z,21.94
2023-01-17T16:00:17.775Z,21.52
2023-01-17T16:01:26.932Z,21.56
2023-01-17T16:02:44.672Z,21.50
2023-01-17T16:03:54.576Z,24.56
2023-01-17T16:04:59.186Z,23.29
2023-01-17T16:06:03.900Z,22.58
2023-01-17T16:07:13.025Z,22.38
2023-01-17T16:08:28.802Z,22.21
2023-01-17T16:09:38.191Z,22.34
2023-01-17T16:10:42.589Z,21.83
2023-01-17T16:11:45.785Z,21.11
2023-01-17T16:12:51.987Z,21.14
2023-01-17T16:13:55.412Z,20.91
2023-01-17T16:15:11.687Z,20.41
2023-01-17T16:16:15.091Z,21.71
2023-01-17T16:17:18.312Z,20.73
2023-01-17T16:18:23.832Z,21.33
2023-01-17T16:19:27.156Z,20.72
2023-01-17T16:20:48.589Z,21.14
2023-01-17T16:21:51.782Z,19.45
2023-01-17T16:22:54.972Z,20.79
2023-01-17T16:23:59.256Z,22.39
2023-01-17T16:25:02.504Z,18.07
2023-01-17T16:26:05.925Z,19.51
2023-01-17T16:27:09.113Z,19.18
2023-01-17T16:28:12.335Z,20.64
2023-01-17T16:29:15.523Z,17.96
2023-01-17T16:30:22.357Z,16.69
2023-01-17T16:31:25.630Z,17.35
2023-01-17T16:32:28.753Z,18.12
2023-01-17T16:33:31.948Z,17.98
2023-01-17T16:34:35.468Z,17.49
2023-01-17T16:35:39.743Z,16.37
2023-01-17T16:36:42.943Z,17.71
2023-01-17T16:37:52.165Z,16.09
2023-01-17T16:38:55.548Z,16.82
2023-01-17T16:39:58.714Z,16.77
2023-01-17T16:41:03.985Z,18.18
2023-01-17T16:42:08.855Z,16.22
2023-01-17T16:43:13.635Z,16.77
2023-01-17T16:44:16.815Z,18.15
2023-01-17T16:45:20.058Z,16.09
2023-01-17T16:46:23.161Z,17.10
2023-01-17T16:47:26.188Z,16.20
2023-01-17T16:48:29.155Z,16.95
2023-01-17T16:49:32.432Z,17.26
2023-01-17T16:50:38.563Z,17.18
2023-01-17T16:51:43.330Z,16.74
2023-01-17T16:52:46.423Z,16.72
2023-01-17T16:53:49.382Z,18.16
2023-01-17T16:54:52.322Z,17.17
2023-01-17T16:55:57.897Z,18.52
2023-01-17T16:57:01.077Z,18.34
2023-01-17T16:58:04.245Z,18.57
2023-01-17T16:59:07.491Z,18.18
2023-01-17T17:00:11.852Z,17.16
2023-01-17T17:01:17.301Z,17.58
2023-01-17T17:02:20.582Z,17.66
2023-01-17T17:03:23.815Z,17.68
2023-01-17T17:04:26.764Z,18.23
2023-01-17T17:05:31.699Z,18.28
2023-01-17T17:06:35.237Z,17.57
2023-01-17T17:07:45.617Z,17.83
2023-01-17T17:08:48.631Z,22.97
2023-01-17T17:09:51.741Z,20.04
2023-01-17T17:10:55.405Z,22.53
2023-01-17T17:11:58.527Z,17.88
2023-01-17T17:13:02.924Z,16.48
2023-01-17T17:14:06.085Z,16.42
2023-01-17T17:15:10.185Z,17.66
2023-01-17T17:16:17.166Z,17.78
2023-01-17T17:17:20.274Z,14.83
2023-01-17T17:18:23.334Z,15.09
2023-01-17T17:19:27.635Z,14.92
2023-01-17T17:20:31.619Z,13.68
2023-01-17T17:21:36.882Z,15.39
2023-01-17T17:22:43.368Z,15.63
2023-01-17T17:23:48.341Z,16.44
2023-01-17T17:24:51.454Z,15.42
2023-01-17T17:25:57.554Z,15.11
2023-01-17T17:27:00.735Z,14.50
2023-01-17T17:28:04.954Z,15.28
2023-01-17T17:29:10.414Z,14.84
2023-01-17T17:30:14.024Z,14.08
2023-01-17T17:31:17.316Z,15.43
2023-01-17T17:32:20.596Z,14.91
2023-01-17T17:33:23.757Z,14.52
2023-01-17T17:34:27.634Z,17.04
2023-01-17T17:35:35.446Z,14.67
2023-01-17T17:36:39.079Z,14.64
2023-01-17T17:37:42.248Z,15.26
2023-01-17T17:38:51.363Z,15.71
2023-01-17T17:39:57.758Z,15.91
2023-01-17T17:41:05.764Z,15.39
2023-01-17T17:42:08.869Z,14.63
2023-01-17T17:43:12.255Z,15.11
2023-01-17T17:44:15.860Z,15.19
2023-01-17T17:45:19.066Z,15.16
2023-01-17T17:46:24.931Z,17.13
2023-01-17T17:47:29.938Z,14.22
2023-01-17T17:48:33.032Z,15.56
2023-01-17T17:49:36.150Z,16.54
2023-01-17T17:50:39.204Z,15.03
2023-01-17T17:51:44.190Z,14.86